createdAt,value
2018-07-31T00:00:04.625Z,70.78
2018-07-31T00:03:08.937Z,71.30
2018-07-31T00:06:23.389Z,71.47
2018-07-31T00:09:27.675Z,72.07
2018-07-31T00:12:32.019Z,71.73
2018-07-31T00:15:36.188Z,71.55
2018-07-31T00:18:40.576Z,72.09
2018-07-31T00:21:44.983Z,71.79
2018-07-31T00:24:49.295Z,72.19
2018-07-31T00:27:53.368Z,72.12
2018-07-31T00:30:57.726Z,72.31
2018-07-31T00:34:02.045Z,71.56
2018-07-31T00:37:06.361Z,71.69
2018-07-31T00:40:10.688Z,71.93
2018-07-31T00:43:14.992Z,72.38
2018-07-31T00:46:20.557Z,72.32
2018-07-31T00:49:24.862Z,72.41
2018-07-31T00:52:29.236Z,72.72
2018-07-31T00:55:33.553Z,72.47
2018-07-31T00:58:37.911Z,72.63
2018-07-31T01:01:42.228Z,72.03
2018-07-31T01:04:46.729Z,71.92
2018-07-31T01:07:51.017Z,73.11
2018-07-31T01:10:55.332Z,72.50
2018-07-31T01:13:59.596Z,72.00
2018-07-31T01:17:03.921Z,72.49
2018-07-31T01:20:08.294Z,72.25
2018-07-31T01:23:12.645Z,72.62
2018-07-31T01:26:18.440Z,72.97
2018-07-31T01:29:22.732Z,72.71
2018-07-31T01:32:27.035Z,72.65
2018-07-31T01:35:31.408Z,72.63
2018-07-31T01:38:35.684Z,73.12
2018-07-31T01:41:40.326Z,72.70
2018-07-31T01:44:44.842Z,72.92
2018-07-31T01:47:50.027Z,72.28
2018-07-31T01:50:54.402Z,73.54
2018-07-31T01:53:58.740Z,73.52
2018-07-31T01:57:03.081Z,73.24
2018-07-31T02:00:07.389Z,73.69
2018-07-31T02:03:11.669Z,73.85
2018-07-31T02:06:16.120Z,73.71
2018-07-31T02:09:20.380Z,73.57
2018-07-31T02:12:24.719Z,73.66
2018-07-31T02:15:29.061Z,73.69
2018-07-31T02:18:33.305Z,73.57
2018-07-31T02:21:37.961Z,73.93
2018-07-31T02:24:42.212Z,73.40
2018-07-31T02:27:46.451Z,73.86
2018-07-31T02:30:50.737Z,74.11
2018-07-31T02:33:55.018Z,74.30
2018-07-31T02:36:59.260Z,74.29
2018-07-31T02:40:03.536Z,74.70
2018-07-31T02:43:07.802Z,74.31
2018-07-31T02:46:12.370Z,74.17
2018-07-31T02:49:16.661Z,74.35
2018-07-31T02:52:21.014Z,74.79
2018-07-31T02:55:25.501Z,75.28
2018-07-31T02:58:29.968Z,74.96
2018-07-31T03:01:34.649Z,75.59
2018-07-31T03:04:38.908Z,75.35
2018-07-31T03:07:43.577Z,75.26
2018-07-31T03:10:47.583Z,74.83
2018-07-31T03:13:51.921Z,74.70
2018-07-31T03:16:56.772Z,75.11
2018-07-31T03:20:01.047Z,75.12
2018-07-31T03:23:05.343Z,75.10
2018-07-31T03:26:09.709Z,75.38
2018-07-31T03:29:13.996Z,75.24
2018-07-31T03:32:18.240Z,75.45
2018-07-31T03:35:22.591Z,74.96
2018-07-31T03:38:26.776Z,74.89
2018-07-31T03:41:31.061Z,75.10
2018-07-31T03:44:35.566Z,74.87
2018-07-31T03:47:40.090Z,75.23
2018-07-31T03:50:44.725Z,75.13
2018-07-31T03:53:49.167Z,75.19
2018-07-31T03:56:53.463Z,75.52
2018-07-31T03:59:58.094Z,75.63
2018-07-31T04:03:02.434Z,75.67
2018-07-31T04:06:07.140Z,75.75
2018-07-31T04:09:13.229Z,75.45
2018-07-31T04:12:17.540Z,75.43
2018-07-31T04:15:21.919Z,75.35
2018-07-31T04:18:26.235Z,74.99
2018-07-31T04:21:30.973Z,74.90
2018-07-31T04:24:35.321Z,75.54
2018-07-31T04:27:39.746Z,75.18
2018-07-31T04:30:44.175Z,74.78
2018-07-31T04:33:48.480Z,74.74
2018-07-31T04:36:52.747Z,74.48
2018-07-31T04:39:57.064Z,74.50
2018-07-31T04:43:01.514Z,73.81
2018-07-31T04:46:06.036Z,74.24
2018-07-31T04:49:10.474Z,73.86
2018-07-31T04:52:14.809Z,74.20
2018-07-31T04:55:19.077Z,73.03
2018-07-31T04:58:23.551Z,73.07
2018-07-31T05:01:27.903Z,72.87
2018-07-31T05:04:32.374Z,72.05
2018-07-31T05:07:39.814Z,71.64
2018-07-31T05:10:44.083Z,71.81
2018-07-31T05:13:48.340Z,71.00
2018-07-31T05:16:52.651Z,70.84
2018-07-31T05:19:57.135Z,70.49
2018-07-31T05:23:01.420Z,70.23
2018-07-31T05:26:05.818Z,70.08
2018-07-31T05:29:10.194Z,69.80
2018-07-31T05:32:14.456Z,69.12
2018-07-31T05:35:19.552Z,69.47
2018-07-31T05:38:24.000Z,68.59
2018-07-31T05:41:28.514Z,69.79
2018-07-31T05:44:32.832Z,68.71
2018-07-31T05:47:37.548Z,67.83
2018-07-31T05:50:42.021Z,67.67
2018-07-31T05:53:46.455Z,67.52
2018-07-31T05:56:52.946Z,66.89
2018-07-31T05:59:57.375Z,65.45
2018-07-31T06:03:02.009Z,59.28
2018-07-31T06:06:06.720Z,54.54
2018-07-31T06:09:11.229Z,52.10
2018-07-31T06:12:15.840Z,49.06
2018-07-31T06:15:20.209Z,47.12
2018-07-31T06:18:24.706Z,45.95
2018-07-31T06:21:29.281Z,41.99
2018-07-31T06:24:33.889Z,43.71
2018-07-31T06:27:38.966Z,39.86
2018-07-31T06:30:43.433Z,41.29
2018-07-31T06:33:47.717Z,38.45
2018-07-31T06:36:51.981Z,37.10
2018-07-31T06:39:56.384Z,40.18
2018-07-31T06:43:00.990Z,39.65
2018-07-31T06:46:05.252Z,39.18
2018-07-31T06:49:09.889Z,37.83
2018-07-31T06:52:14.422Z,41.55
2018-07-31T06:55:19.692Z,41.63
2018-07-31T06:58:24.117Z,43.25
2018-07-31T07:01:28.456Z,39.45
2018-07-31T07:04:32.781Z,38.98
2018-07-31T07:07:37.254Z,41.09
2018-07-31T07:10:41.553Z,44.04
2018-07-31T07:13:45.821Z,47.63
2018-07-31T07:16:50.183Z,47.62
2018-07-31T07:19:54.609Z,43.90
2018-07-31T07:22:58.898Z,45.29
2018-07-31T07:26:03.229Z,46.57
2018-07-31T07:29:07.737Z,49.41
2018-07-31T07:32:12.064Z,46.71
2018-07-31T07:35:16.431Z,46.38
2018-07-31T07:38:21.190Z,43.26
2018-07-31T07:41:25.580Z,45.56
2018-07-31T07:44:29.878Z,47.59
2018-07-31T07:47:34.937Z,44.35
2018-07-31T07:50:39.250Z,46.72
2018-07-31T07:53:43.669Z,41.97
2018-07-31T07:56:48.240Z,42.52
2018-07-31T07:59:52.477Z,41.74
2018-07-31T08:02:56.743Z,42.93
2018-07-31T08:06:01.005Z,42.97
2018-07-31T08:09:07.778Z,40.99
2018-07-31T08:12:12.300Z,40.45
2018-07-31T08:15:16.872Z,41.37
2018-07-31T08:18:21.808Z,40.89
2018-07-31T08:21:26.438Z,41.19
2018-07-31T08:24:30.776Z,39.97
2018-07-31T08:27:35.281Z,40.88
2018-07-31T08:30:41.463Z,40.65
2018-07-31T08:33:45.781Z,42.25
2018-07-31T08:36:50.139Z,40.24
2018-07-31T08:39:54.477Z,41.22
2018-07-31T08:42:58.883Z,39.76
2018-07-31T08:46:03.175Z,39.71
2018-07-31T08:49:07.510Z,41.22
2018-07-31T08:52:11.821Z,40.26
2018-07-31T08:55:16.105Z,39.97
2018-07-31T08:58:20.167Z,38.62
2018-07-31T09:01:24.478Z,40.72
2018-07-31T09:04:28.751Z,40.13
2018-07-31T09:07:33.019Z,40.76
2018-07-31T09:10:37.422Z,39.52
2018-07-31T09:13:42.020Z,40.73
2018-07-31T09:16:46.532Z,38.77
2018-07-31T09:19:50.967Z,40.27
2018-07-31T09:22:55.257Z,38.77
2018-07-31T09:26:01.245Z,39.26
2018-07-31T09:29:05.537Z,39.08
2018-07-31T09:32:09.906Z,37.66
2018-07-31T09:35:14.171Z,37.33
2018-07-31T09:38:18.433Z,38.09
2018-07-31T09:41:22.770Z,38.90
2018-07-31T09:44:27.177Z,36.92
2018-07-31T09:47:31.478Z,35.88
2018-07-31T09:50:35.981Z,36.75
2018-07-31T09:53:40.450Z,37.06
2018-07-31T09:56:44.754Z,38.01
2018-07-31T09:59:49.158Z,37.53
2018-07-31T10:02:54.374Z,36.83
2018-07-31T10:05:58.429Z,36.12
2018-07-31T10:09:02.909Z,37.11
2018-07-31T10:12:07.498Z,39.46
2018-07-31T10:15:11.966Z,37.25
2018-07-31T10:18:16.497Z,35.48
2018-07-31T10:21:21.682Z,36.38
2018-07-31T10:24:25.961Z,35.52
2018-07-31T10:27:30.223Z,34.47
2018-07-31T10:30:34.701Z,35.67
2018-07-31T10:33:38.904Z,34.70
2018-07-31T10:36:43.284Z,36.16
2018-07-31T10:39:47.568Z,33.79
2018-07-31T10:42:51.785Z,34.33
2018-07-31T10:45:56.968Z,36.73
2018-07-31T10:49:01.254Z,34.39
2018-07-31T10:52:05.639Z,35.30
2018-07-31T10:55:10.052Z,34.65
2018-07-31T10:58:14.537Z,34.98
2018-07-31T11:01:18.781Z,34.32
2018-07-31T11:04:23.348Z,34.26
2018-07-31T11:07:28.021Z,35.27
2018-07-31T11:10:32.340Z,33.32
2018-07-31T11:13:37.006Z,34.76
2018-07-31T11:16:41.336Z,33.94
2018-07-31T11:19:46.134Z,32.47
2018-07-31T11:22:50.952Z,32.42
2018-07-31T11:25:55.591Z,31.93
2018-07-31T11:28:59.885Z,31.72
2018-07-31T11:32:04.469Z,31.15
2018-07-31T11:35:08.740Z,32.62
2018-07-31T11:38:12.919Z,32.53
2018-07-31T11:41:18.189Z,31.13
2018-07-31T11:44:22.619Z,30.89
2018-07-31T11:47:27.545Z,30.82
2018-07-31T11:50:32.180Z,32.11
2018-07-31T11:53:36.735Z,31.64
2018-07-31T11:56:41.707Z,31.20
2018-07-31T11:59:46.341Z,31.79
2018-07-31T12:02:50.965Z,29.46
2018-07-31T12:05:55.212Z,30.00
2018-07-31T12:08:59.574Z,30.29
2018-07-31T12:12:03.879Z,31.06
2018-07-31T12:15:08.140Z,30.54
2018-07-31T12:18:12.506Z,28.94
2018-07-31T12:21:16.919Z,31.06
2018-07-31T12:24:21.369Z,30.20
2018-07-31T12:27:25.652Z,32.08
2018-07-31T12:30:30.059Z,32.58
2018-07-31T12:33:34.420Z,32.09
2018-07-31T12:36:39.045Z,31.00
2018-07-31T12:39:43.463Z,30.11
2018-07-31T12:42:47.794Z,30.89
2018-07-31T12:46:48.013Z,29.69
2018-07-31T12:49:52.878Z,30.35
2018-07-31T12:52:57.304Z,30.07
2018-07-31T12:56:01.663Z,31.13
2018-07-31T12:59:06.273Z,30.41
2018-07-31T13:02:10.615Z,30.12
2018-07-31T13:05:14.936Z,31.19
2018-07-31T13:08:19.263Z,30.82
2018-07-31T13:11:23.747Z,30.11
2018-07-31T13:14:28.126Z,29.75
2018-07-31T13:17:32.583Z,30.61
2018-07-31T13:20:37.290Z,29.67
2018-07-31T13:23:41.835Z,29.02
2018-07-31T13:26:46.262Z,28.32
2018-07-31T13:29:50.692Z,28.25
2018-07-31T13:32:54.790Z,28.95
2018-07-31T13:35:59.207Z,29.24
2018-07-31T13:39:04.157Z,29.23
2018-07-31T13:42:08.737Z,29.29
2018-07-31T13:45:13.181Z,29.43
2018-07-31T13:48:17.759Z,28.28
2018-07-31T13:51:22.105Z,29.45
2018-07-31T13:54:26.798Z,31.73
2018-07-31T13:57:31.232Z,31.18
2018-07-31T14:00:35.697Z,29.38
2018-07-31T14:03:40.156Z,30.31
2018-07-31T14:06:44.818Z,30.66
2018-07-31T14:09:49.685Z,28.59
2018-07-31T14:12:54.009Z,29.43
2018-07-31T14:15:58.506Z,31.24
2018-07-31T14:19:02.811Z,30.40
2018-07-31T14:22:07.270Z,30.53
2018-07-31T14:25:11.812Z,28.25
2018-07-31T14:28:16.225Z,29.92
2018-07-31T14:31:20.673Z,29.80
2018-07-31T14:34:24.949Z,29.61
2018-07-31T14:37:29.351Z,30.45
2018-07-31T14:40:33.645Z,30.61
2018-07-31T14:43:38.068Z,30.39
2018-07-31T14:46:42.441Z,30.80
2018-07-31T14:49:46.774Z,30.96
2018-07-31T14:52:51.335Z,31.64
2018-07-31T14:55:56.065Z,31.80
2018-07-31T14:59:00.578Z,32.05
2018-07-31T15:02:05.458Z,32.17
2018-07-31T15:05:09.901Z,32.86
2018-07-31T15:08:14.285Z,31.14
2018-07-31T15:11:18.912Z,31.32
2018-07-31T15:14:23.784Z,30.33
2018-07-31T15:17:28.177Z,31.84
2018-07-31T15:20:32.825Z,31.54
2018-07-31T15:23:37.319Z,31.56
2018-07-31T15:26:41.745Z,32.21
2018-07-31T15:29:46.191Z,31.61
2018-07-31T15:32:50.551Z,29.75
2018-07-31T15:35:55.301Z,31.08
2018-07-31T15:38:59.624Z,29.66
2018-07-31T15:42:03.921Z,30.67
2018-07-31T15:45:08.622Z,31.78
2018-07-31T15:48:13.374Z,30.52
2018-07-31T15:51:17.952Z,32.00
2018-07-31T15:54:22.590Z,31.51
2018-07-31T15:57:27.165Z,32.16
2018-07-31T16:00:31.649Z,31.94
2018-07-31T16:03:35.920Z,31.85
2018-07-31T16:06:40.741Z,31.75
2018-07-31T16:09:45.180Z,31.74
2018-07-31T16:12:49.663Z,31.51
2018-07-31T16:15:53.979Z,30.27
2018-07-31T16:18:58.812Z,30.79
2018-07-31T16:22:03.237Z,31.23
2018-07-31T16:25:08.113Z,31.36
2018-07-31T16:28:12.604Z,31.24
2018-07-31T16:31:17.141Z,30.71
2018-07-31T16:34:21.679Z,30.33
2018-07-31T16:37:26.485Z,30.55
2018-07-31T16:40:30.766Z,30.43
2018-07-31T16:43:35.219Z,32.21
2018-07-31T16:46:39.908Z,31.01
2018-07-31T16:49:44.214Z,32.95
2018-07-31T16:52:48.689Z,31.45
2018-07-31T16:55:53.261Z,31.12
2018-07-31T16:58:57.443Z,28.85
2018-07-31T17:02:02.362Z,25.98
2018-07-31T17:05:06.832Z,23.42
2018-07-31T17:08:11.264Z,21.50
2018-07-31T17:11:15.749Z,23.87
2018-07-31T17:14:20.412Z,24.41
2018-07-31T17:17:24.846Z,24.48
2018-07-31T17:20:29.226Z,24.44
2018-07-31T17:23:33.616Z,25.00
2018-07-31T17:26:38.105Z,26.64
2018-07-31T17:29:42.761Z,27.42
2018-07-31T17:32:47.133Z,27.74
2018-07-31T17:35:52.397Z,29.79
2018-07-31T17:38:57.665Z,31.04
2018-07-31T17:42:01.902Z,32.73
2018-07-31T17:45:07.020Z,32.92
2018-07-31T17:48:11.422Z,32.55
2018-07-31T17:51:15.760Z,34.59
2018-07-31T17:54:20.057Z,35.18
2018-07-31T17:57:24.437Z,35.85
2018-07-31T18:00:28.728Z,38.01
2018-07-31T18:03:33.491Z,36.62
2018-07-31T18:06:37.770Z,37.18
2018-07-31T18:09:41.880Z,37.54
2018-07-31T18:12:46.650Z,37.73
2018-07-31T18:15:51.204Z,37.59
2018-07-31T18:18:55.776Z,37.59
2018-07-31T18:22:00.147Z,38.28
2018-07-31T18:25:05.574Z,39.10
2018-07-31T18:28:10.032Z,40.02
2018-07-31T18:31:14.506Z,39.39
2018-07-31T18:34:18.881Z,40.24
2018-07-31T18:37:23.262Z,40.86
2018-07-31T18:40:27.604Z,42.25
2018-07-31T18:43:32.243Z,42.73
2018-07-31T18:46:36.542Z,43.10
2018-07-31T18:49:40.855Z,45.73
2018-07-31T18:52:45.209Z,45.56
2018-07-31T18:55:49.613Z,46.72
2018-07-31T18:58:54.000Z,46.60
2018-07-31T19:01:58.372Z,47.09
2018-07-31T19:05:02.889Z,47.83
2018-07-31T19:08:07.954Z,47.93
2018-07-31T19:11:12.393Z,47.47
2018-07-31T19:14:16.797Z,47.68
2018-07-31T19:17:21.605Z,47.80
2018-07-31T19:20:25.930Z,48.56
2018-07-31T19:23:30.317Z,48.88
2018-07-31T19:26:34.468Z,49.17
2018-07-31T19:29:38.800Z,50.23
2018-07-31T19:32:43.869Z,50.92
2018-07-31T19:35:48.554Z,51.58
2018-07-31T19:38:53.137Z,52.46
2018-07-31T19:41:57.616Z,53.06
2018-07-31T19:45:02.136Z,54.28
2018-07-31T19:48:06.890Z,53.57
2018-07-31T19:51:11.688Z,54.24
2018-07-31T19:54:16.307Z,54.07
2018-07-31T19:57:21.246Z,54.81
2018-07-31T20:00:25.829Z,54.50
2018-07-31T20:03:30.398Z,55.39
2018-07-31T20:06:35.173Z,54.91
2018-07-31T20:09:40.827Z,55.60
2018-07-31T20:12:45.286Z,56.18
2018-07-31T20:15:49.879Z,56.14
2018-07-31T20:18:54.236Z,56.40
2018-07-31T20:21:58.596Z,55.89
2018-07-31T20:25:02.911Z,56.50
2018-07-31T20:28:07.360Z,58.80
2018-07-31T20:31:11.876Z,58.43
2018-07-31T20:34:16.300Z,57.63
2018-07-31T20:37:20.915Z,58.35
2018-07-31T20:40:25.230Z,58.05
2018-07-31T20:43:29.620Z,56.24
2018-07-31T20:46:34.105Z,58.08
2018-07-31T20:49:38.501Z,58.45
2018-07-31T20:52:42.838Z,58.10
2018-07-31T20:55:47.562Z,58.41
2018-07-31T20:58:52.411Z,58.13
2018-07-31T21:01:56.905Z,58.34
2018-07-31T21:05:01.296Z,59.87
2018-07-31T21:08:05.773Z,60.96
2018-07-31T21:11:09.852Z,61.64
2018-07-31T21:14:15.539Z,60.81
2018-07-31T21:17:19.882Z,60.82
2018-07-31T21:20:24.511Z,60.80
2018-07-31T21:23:29.364Z,62.30
2018-07-31T21:26:34.577Z,61.21
2018-07-31T21:29:38.999Z,60.74
2018-07-31T21:32:43.477Z,61.08
2018-07-31T21:35:49.047Z,60.56
2018-07-31T21:38:53.681Z,61.07
2018-07-31T21:41:58.259Z,61.57
2018-07-31T21:45:02.941Z,62.57
2018-07-31T21:48:07.633Z,61.23
2018-07-31T21:51:11.889Z,61.78
2018-07-31T21:54:16.345Z,60.76
2018-07-31T21:57:20.727Z,61.25
2018-07-31T22:00:25.065Z,61.43
2018-07-31T22:03:29.614Z,61.31
2018-07-31T22:06:33.921Z,61.11
2018-07-31T22:09:45.334Z,61.08
2018-07-31T22:12:49.693Z,61.28
2018-07-31T22:15:53.967Z,60.98
2018-07-31T22:18:58.313Z,61.13
2018-07-31T22:22:02.930Z,61.08
2018-07-31T22:25:07.323Z,61.10
2018-07-31T22:28:11.744Z,61.02
2018-07-31T22:31:16.007Z,60.98
2018-07-31T22:34:21.726Z,62.10
2018-07-31T22:37:26.013Z,61.32
2018-07-31T22:40:30.560Z,61.83
2018-07-31T22:43:34.951Z,61.23
2018-07-31T22:46:39.194Z,61.06
2018-07-31T22:49:43.522Z,61.25
2018-07-31T22:52:47.916Z,61.06
2018-07-31T22:55:52.261Z,60.58
2018-07-31T22:58:57.053Z,60.92
2018-07-31T23:02:01.770Z,60.70
2018-07-31T23:15:44.298Z,61.16
2018-07-31T23:25:53.398Z,60.89
2018-07-31T23:28:58.102Z,61.20
2018-07-31T23:32:02.440Z,61.19
2018-07-31T23:35:07.475Z,61.24
2018-07-31T23:38:11.798Z,61.15
2018-07-31T23:41:16.463Z,60.95
2018-07-31T23:44:21.045Z,61.31
2018-07-31T23:47:26.255Z,61.29
2018-07-31T23:50:30.683Z,61.54
2018-07-31T23:53:34.982Z,61.77
2018-07-31T23:56:39.705Z,62.27
2018-07-31T23:59:44.130Z,62.54
